Time;durP1;ratioP1;P1;durP2;ratioP2;P2;SDS_P1;SDS_P2;PMS_P1;PMS_P2;Temp;Humidity;BMP_temperature;BMP_pressure;BME280_temperature;BME280_humidity;BME280_pressure;Samples;Min_cycle;Max_cycle;Signal;HPM_P1;HPM_P2
2022/09/05 00:02:20;;;;;;;;;;;11.40;99.90;;;;;;5125207;27;19922;-56
2022/09/05 00:05:08;;;;;;;;;;;11.30;99.90;;;;;;5125340;27;19945;-56
2022/09/05 00:07:53;;;;;;;;;;;11.30;99.90;;;;;;5120408;27;20395;-55
2022/09/05 00:10:38;;;;;;;;;;;11.30;99.90;;;;;;5117560;27;19923;-56
2022/09/05 00:13:21;;;;;;;;;;;11.30;99.90;;;;;;5120258;27;19915;-55
2022/09/05 00:16:09;;;;;;;;;;;11.30;99.90;;;;;;5124467;27;19923;-55
2022/09/05 00:18:56;;;;;;;;;;;11.20;99.90;;;;;;5083746;28;20389;-54
2022/09/05 00:21:43;;;;;;;;;;;11.20;99.90;;;;;;5126053;27;19911;-56
2022/09/05 00:24:31;;;;;;;;;;;11.20;99.90;;;;;;5125435;27;19920;-54
2022/09/05 00:27:16;;;;;;;;;;;11.20;99.90;;;;;;5104441;27;19990;-55
2022/09/05 00:30:02;;;;;;;;;;;11.20;99.90;;;;;;5125056;27;20372;-56
2022/09/05 00:32:50;;;;;;;;;;;11.20;99.90;;;;;;5125492;27;19915;-55
2022/09/05 00:35:37;;;;;;;;;;;11.30;99.90;;;;;;5125435;27;19911;-55
2022/09/05 00:38:18;;;;;;;;;;;11.30;99.90;;;;;;5105012;27;19912;-57
2022/09/05 00:41:01;;;;;;;;;;;11.20;99.90;;;;;;5104237;27;20381;-59
2022/09/05 00:43:42;;;;;;;;;;;11.20;99.90;;;;;;5154617;27;20322;-55
2022/09/05 00:46:25;;;;;;;;;;;11.20;99.90;;;;;;5125353;27;20115;-55
2022/09/05 00:49:15;;;;;;;;;;;11.20;99.90;;;;;;5124326;27;19915;-56
2022/09/05 00:52:00;;;;;;;;;;;11.20;99.90;;;;;;5105154;27;19912;-54
2022/09/05 00:54:50;;;;;;;;;;;11.20;99.90;;;;;;5125527;27;19915;-54
2022/09/05 00:57:36;;;;;;;;;;;11.20;99.90;;;;;;5124879;27;19919;-59
2022/09/05 01:00:18;;;;;;;;;;;11.10;99.90;;;;;;5124850;27;19918;-53
2022/09/05 01:03:20;;;;;;;;;;;11.10;99.90;;;;;;5125844;27;19912;-55
2022/09/05 01:06:06;;;;;;;;;;;11.10;99.90;;;;;;5104694;27;19949;-54
2022/09/05 01:09:01;;;;;;;;;;;11.10;99.90;;;;;;5125023;27;19916;-55
2022/09/05 01:11:49;;;;;;;;;;;11.10;99.90;;;;;;5104925;27;20419;-54
2022/09/05 01:14:36;;;;;;;;;;;11.00;99.90;;;;;;5125497;27;20323;-56
2022/09/05 01:17:29;;;;;;;;;;;11.00;99.90;;;;;;5125455;27;19912;-53
2022/09/05 01:20:20;;;;;;;;;;;11.00;99.90;;;;;;5104640;27;19926;-55
2022/09/05 01:23:20;;;;;;;;;;;10.90;99.90;;;;;;5105238;27;19953;-53
2022/09/05 01:26:06;;;;;;;;;;;10.90;99.90;;;;;;5125391;27;19911;-55
2022/09/05 01:28:50;;;;;;;;;;;10.90;99.90;;;;;;5124516;27;19920;-54
2022/09/05 01:31:35;;;;;;;;;;;10.90;99.90;;;;;;5088298;27;19916;-55
2022/09/05 01:34:21;;;;;;;;;;;10.90;99.90;;;;;;5125686;27;20270;-55
2022/09/05 01:37:07;;;;;;;;;;;10.90;99.90;;;;;;5125497;27;19911;-57
2022/09/05 01:39:52;;;;;;;;;;;10.90;99.90;;;;;;5124786;27;19922;-56
2022/09/05 01:42:37;;;;;;;;;;;11.00;99.90;;;;;;5125408;27;19970;-59
2022/09/05 01:45:20;;;;;;;;;;;11.00;99.90;;;;;;5124974;27;20385;-54
2022/09/05 01:48:04;;;;;;;;;;;10.90;99.90;;;;;;5098117;27;20385;-57
2022/09/05 01:50:51;;;;;;;;;;;11.00;99.90;;;;;;5123695;27;19912;-54
2022/09/05 01:53:38;;;;;;;;;;;11.00;99.90;;;;;;5124935;27;20285;-54
2022/09/05 01:56:34;;;;;;;;;;;10.90;99.90;;;;;;5124942;27;20299;-55
2022/09/05 01:59:33;;;;;;;;;;;10.80;99.90;;;;;;5104289;27;20312;-55
2022/09/05 02:02:31;;;;;;;;;;;10.80;99.90;;;;;;5125547;27;19920;-59
2022/09/05 02:05:25;;;;;;;;;;;10.80;99.90;;;;;;5125400;27;20327;-53
2022/09/05 02:08:22;;;;;;;;;;;10.70;99.90;;;;;;5104442;27;19915;-54
2022/09/05 02:11:04;;;;;;;;;;;10.70;99.90;;;;;;5116971;22;19924;-56
2022/09/05 02:13:48;;;;;;;;;;;10.60;99.90;;;;;;5104226;27;19930;-56
2022/09/05 02:16:41;;;;;;;;;;;10.60;99.90;;;;;;5144787;27;20406;-57
2022/09/05 02:19:23;;;;;;;;;;;10.60;99.90;;;;;;5123207;27;19912;-57
2022/09/05 02:22:08;;;;;;;;;;;10.60;99.90;;;;;;5124603;27;20096;-57
2022/09/05 02:24:53;;;;;;;;;;;10.60;99.90;;;;;;5124733;27;19912;-56
2022/09/05 02:27:36;;;;;;;;;;;10.60;99.90;;;;;;5125191;27;19912;-57
2022/09/05 02:30:17;;;;;;;;;;;10.60;99.90;;;;;;5103975;27;20406;-57
2022/09/05 02:33:09;;;;;;;;;;;10.50;99.90;;;;;;5125120;27;19926;-56
2022/09/05 02:35:52;;;;;;;;;;;10.40;99.90;;;;;;5123536;27;19912;-56
2022/09/05 02:38:37;;;;;;;;;;;10.50;99.90;;;;;;5124648;27;20292;-57
2022/09/05 02:41:22;;;;;;;;;;;10.50;99.90;;;;;;5125326;27;19915;-57
2022/09/05 02:44:07;;;;;;;;;;;10.40;99.90;;;;;;5104990;27;20377;-57
2022/09/05 02:46:50;;;;;;;;;;;10.40;99.90;;;;;;5104599;27;19916;-57
2022/09/05 02:49:39;;;;;;;;;;;10.40;99.90;;;;;;5124214;27;19925;-56
2022/09/05 02:52:22;;;;;;;;;;;10.40;99.90;;;;;;5125643;27;19918;-56
2022/09/05 02:55:05;;;;;;;;;;;10.40;99.90;;;;;;5104604;27;19918;-56
2022/09/05 02:57:47;;;;;;;;;;;10.30;99.90;;;;;;5124904;27;19953;-57
2022/09/05 03:00:31;;;;;;;;;;;10.30;99.90;;;;;;5120566;27;19916;-57
2022/09/05 03:03:27;;;;;;;;;;;10.40;99.90;;;;;;5145820;27;19918;-56
2022/09/05 03:06:12;;;;;;;;;;;10.50;99.90;;;;;;5104676;27;19942;-57
2022/09/05 03:09:11;;;;;;;;;;;10.40;99.90;;;;;;5124025;27;20277;-57
2022/09/05 03:12:17;;;;;;;;;;;10.30;99.90;;;;;;5104990;27;19945;-57
2022/09/05 03:15:15;;;;;;;;;;;10.20;99.90;;;;;;5124632;27;19915;-57
2022/09/05 03:18:03;;;;;;;;;;;10.20;99.90;;;;;;5156256;27;19912;-57
2022/09/05 03:21:03;;;;;;;;;;;10.10;99.90;;;;;;5118158;27;19912;-57
2022/09/05 03:24:02;;;;;;;;;;;10.10;99.90;;;;;;5125128;27;20401;-57
2022/09/05 03:26:59;;;;;;;;;;;10.10;99.90;;;;;;5124966;27;19945;-57
2022/09/05 03:29:53;;;;;;;;;;;10.10;99.90;;;;;;5124507;27;19920;-57
2022/09/05 03:32:49;;;;;;;;;;;10.10;99.90;;;;;;5124843;27;19949;-56
2022/09/05 03:36:07;;;;;;;;;;;10.10;99.90;;;;;;5124555;27;19919;-57
2022/09/05 03:39:04;;;;;;;;;;;10.10;99.90;;;;;;5144834;27;19929;-57
2022/09/05 03:41:54;;;;;;;;;;;10.10;99.90;;;;;;5116736;27;19926;-56
2022/09/05 03:44:49;;;;;;;;;;;10.10;99.90;;;;;;5125375;27;19912;-57
2022/09/05 03:47:41;;;;;;;;;;;10.00;99.90;;;;;;5124752;27;19912;-56
2022/09/05 03:50:28;;;;;;;;;;;10.00;99.90;;;;;;5080797;27;20101;-56
2022/09/05 03:53:20;;;;;;;;;;;9.90;99.90;;;;;;5104652;27;19941;-56
2022/09/05 03:56:06;;;;;;;;;;;9.90;99.90;;;;;;5125000;27;20299;-57
2022/09/05 03:59:03;;;;;;;;;;;9.90;99.90;;;;;;5082082;28;20393;-57
2022/09/05 04:01:46;;;;;;;;;;;9.90;99.90;;;;;;5110879;27;19919;-57
2022/09/05 04:04:30;;;;;;;;;;;9.90;99.90;;;;;;5125370;27;19912;-56
2022/09/05 04:07:11;;;;;;;;;;;9.90;99.90;;;;;;5124844;27;19916;-56
2022/09/05 04:09:53;;;;;;;;;;;9.90;99.90;;;;;;5103767;27;19916;-57
2022/09/05 04:12:36;;;;;;;;;;;9.90;99.90;;;;;;5124988;27;19916;-56
2022/09/05 04:15:25;;;;;;;;;;;9.90;99.90;;;;;;5104816;27;19926;-56
2022/09/05 04:18:21;;;;;;;;;;;9.90;99.90;;;;;;5104638;27;20157;-57
2022/09/05 04:21:03;;;;;;;;;;;9.80;99.90;;;;;;5116507;27;19917;-56
2022/09/05 04:23:52;;;;;;;;;;;9.80;99.90;;;;;;5124746;27;19912;-57
2022/09/05 04:26:42;;;;;;;;;;;9.80;99.90;;;;;;5084761;28;19944;-57
2022/09/05 04:29:26;;;;;;;;;;;9.80;99.90;;;;;;5124754;27;19916;-57
2022/09/05 04:32:13;;;;;;;;;;;9.80;99.90;;;;;;5105436;27;19930;-57
2022/09/05 04:35:01;;;;;;;;;;;9.90;99.90;;;;;;5125356;27;19926;-57
2022/09/05 04:37:52;;;;;;;;;;;9.90;99.90;;;;;;5104051;27;19961;-57
2022/09/05 04:40:43;;;;;;;;;;;9.90;99.90;;;;;;5045842;27;2615943;-57
2022/09/05 04:43:29;;;;;;;;;;;9.90;99.90;;;;;;5103220;27;19916;-57
2022/09/05 04:46:17;;;;;;;;;;;10.00;99.90;;;;;;5122669;27;19953;-57
2022/09/05 04:49:00;;;;;;;;;;;9.90;99.90;;;;;;5100220;27;19916;-57
2022/09/05 04:51:52;;;;;;;;;;;9.90;99.90;;;;;;5086560;27;19923;-57
2022/09/05 04:54:36;;;;;;;;;;;9.90;99.90;;;;;;5080485;28;19913;-57
2022/09/05 04:57:23;;;;;;;;;;;10.00;99.90;;;;;;5142777;27;19925;-57
2022/09/05 05:00:05;;;;;;;;;;;10.10;99.90;;;;;;5101133;27;19945;-57
2022/09/05 05:02:47;;;;;;;;;;;10.10;99.90;;;;;;5122558;27;19953;-57
2022/09/05 05:05:30;;;;;;;;;;;10.20;99.90;;;;;;5101405;27;20324;-56
2022/09/05 05:08:17;;;;;;;;;;;10.20;99.90;;;;;;5156036;27;19916;-56
2022/09/05 05:11:00;;;;;;;;;;;10.30;99.90;;;;;;5114163;27;20002;-57
2022/09/05 05:13:43;;;;;;;;;;;10.40;99.90;;;;;;5121119;27;20835;-57
2022/09/05 05:16:25;;;;;;;;;;;10.50;99.90;;;;;;5121262;27;20377;-57
2022/09/05 05:19:11;;;;;;;;;;;10.50;99.90;;;;;;5120167;27;19920;-56
2022/09/05 05:21:53;;;;;;;;;;;10.60;99.90;;;;;;5122132;27;19918;-56
2022/09/05 05:24:35;;;;;;;;;;;10.80;99.90;;;;;;5081589;28;19919;-56
2022/09/05 05:27:20;;;;;;;;;;;10.90;99.90;;;;;;5122330;27;19918;-57
2022/09/05 05:30:03;;;;;;;;;;;10.90;99.90;;;;;;5101244;27;20277;-57
2022/09/05 05:32:46;;;;;;;;;;;11.00;99.90;;;;;;5122828;27;19972;-56
2022/09/05 05:35:28;;;;;;;;;;;11.10;99.90;;;;;;5143917;27;20420;-57
2022/09/05 05:38:17;;;;;;;;;;;11.20;99.90;;;;;;5122465;27;19912;-56
2022/09/05 05:41:01;;;;;;;;;;;11.40;99.90;;;;;;5121704;27;19926;-57
2022/09/05 05:43:43;;;;;;;;;;;11.50;99.90;;;;;;5102689;27;19912;-56
2022/09/05 05:46:35;;;;;;;;;;;11.60;99.90;;;;;;5123007;27;19915;-57
2022/09/05 05:49:28;;;;;;;;;;;11.70;99.90;;;;;;5122468;27;20605;-56
2022/09/05 05:52:25;;;;;;;;;;;11.80;99.90;;;;;;5123933;27;19911;-56
2022/09/05 05:55:13;;;;;;;;;;;11.90;99.90;;;;;;5144406;27;19944;-56
2022/09/05 05:58:03;;;;;;;;;;;12.00;99.90;;;;;;5123473;27;19911;-56
2022/09/05 06:00:57;;;;;;;;;;;12.20;99.90;;;;;;5115280;27;20060;-56
2022/09/05 06:03:45;;;;;;;;;;;12.30;99.90;;;;;;5120685;27;19922;-57
2022/09/05 06:06:33;;;;;;;;;;;12.40;99.90;;;;;;5121958;27;19981;-57
2022/09/05 06:09:39;;;;;;;;;;;12.60;99.90;;;;;;5122706;27;19912;-57
2022/09/05 06:12:38;;;;;;;;;;;12.70;99.90;;;;;;5091879;27;20291;-57
2022/09/05 06:15:29;;;;;;;;;;;12.90;99.90;;;;;;5116786;27;19919;-56
2022/09/05 06:18:20;;;;;;;;;;;13.10;99.90;;;;;;5115678;27;19920;-56
2022/09/05 06:21:13;;;;;;;;;;;13.20;99.90;;;;;;5115488;27;19916;-56
2022/09/05 06:24:17;;;;;;;;;;;13.30;99.90;;;;;;5122585;27;19915;-56
2022/09/05 06:27:09;;;;;;;;;;;13.50;99.90;;;;;;5123257;27;19919;-56
2022/09/05 06:29:56;;;;;;;;;;;13.60;99.90;;;;;;5122853;27;19961;-56
2022/09/05 06:32:44;;;;;;;;;;;13.70;99.90;;;;;;5119431;27;20017;-56
2022/09/05 06:35:29;;;;;;;;;;;13.80;99.90;;;;;;5121724;27;19950;-56
2022/09/05 06:38:25;;;;;;;;;;;13.90;99.90;;;;;;5119304;27;19924;-56
2022/09/05 06:41:12;;;;;;;;;;;14.00;99.90;;;;;;5101572;27;19920;-56
2022/09/05 06:44:12;;;;;;;;;;;14.10;99.90;;;;;;5143294;27;19911;-56
2022/09/05 06:46:53;;;;;;;;;;;14.20;99.90;;;;;;5123267;27;19922;-56
2022/09/05 06:49:37;;;;;;;;;;;14.40;99.90;;;;;;5101996;27;19912;-56
2022/09/05 06:52:32;;;;;;;;;;;14.60;99.90;;;;;;5123806;27;19912;-56
2022/09/05 06:55:28;;;;;;;;;;;14.70;99.90;;;;;;5102872;27;19912;-56
2022/09/05 06:58:31;;;;;;;;;;;15.00;99.90;;;;;;5122928;27;19922;-56
2022/09/05 07:01:12;;;;;;;;;;;15.10;99.90;;;;;;5123512;27;19911;-56
2022/09/05 07:03:59;;;;;;;;;;;15.30;99.90;;;;;;5123834;27;19912;-56
2022/09/05 07:06:48;;;;;;;;;;;15.40;99.90;;;;;;5123280;27;20323;-56
2022/09/05 07:09:30;;;;;;;;;;;15.60;99.90;;;;;;5122716;27;20388;-56
2022/09/05 07:12:14;;;;;;;;;;;15.60;99.90;;;;;;5124188;27;19978;-56
2022/09/05 07:14:58;;;;;;;;;;;15.70;99.90;;;;;;5102635;27;19930;-56
2022/09/05 07:17:43;;;;;;;;;;;15.80;99.90;;;;;;5121775;27;20361;-56
2022/09/05 07:20:26;;;;;;;;;;;16.00;99.90;;;;;;5121446;27;20210;-56
2022/09/05 07:23:11;;;;;;;;;;;16.10;99.90;;;;;;5101503;27;19912;-57
2022/09/05 07:25:53;;;;;;;;;;;16.30;99.90;;;;;;5142819;27;20050;-56
2022/09/05 07:28:33;;;;;;;;;;;16.40;99.90;;;;;;5121797;27;19919;-56
2022/09/05 07:31:16;;;;;;;;;;;16.60;99.90;;;;;;5091381;27;20431;-56
2022/09/05 07:34:08;;;;;;;;;;;16.80;99.90;;;;;;5122573;27;19916;-56
2022/09/05 07:36:56;;;;;;;;;;;16.90;99.90;;;;;;5124465;27;20373;-56
2022/09/05 07:39:39;;;;;;;;;;;17.10;99.90;;;;;;5124117;27;20368;-56
2022/09/05 07:42:22;;;;;;;;;;;17.30;99.90;;;;;;5122381;27;20277;-56
2022/09/05 07:45:07;;;;;;;;;;;17.50;99.90;;;;;;5130180;27;19925;-56
2022/09/05 07:47:52;;;;;;;;;;;17.70;99.90;;;;;;5103204;27;19961;-56
2022/09/05 07:50:33;;;;;;;;;;;18.00;99.90;;;;;;5099652;27;20218;-56
2022/09/05 07:53:15;;;;;;;;;;;18.30;99.90;;;;;;5125923;27;20162;-56
2022/09/05 07:55:57;;;;;;;;;;;18.50;99.90;;;;;;5124923;27;19912;-57
2022/09/05 07:58:42;;;;;;;;;;;18.70;99.90;;;;;;5124450;27;19919;-56
2022/09/05 08:01:22;;;;;;;;;;;18.80;99.90;;;;;;5125716;27;20266;-57
2022/09/05 08:04:02;;;;;;;;;;;19.00;99.90;;;;;;5115862;27;19912;-56
2022/09/05 08:06:42;;;;;;;;;;;19.10;99.90;;;;;;5084102;27;19926;-56
2022/09/05 08:09:25;;;;;;;;;;;19.30;99.90;;;;;;5102161;27;20401;-56
2022/09/05 08:12:10;;;;;;;;;;;19.50;99.90;;;;;;5138505;22;19928;-58
2022/09/05 08:14:56;;;;;;;;;;;19.70;99.90;;;;;;5125646;27;19938;-58
2022/09/05 08:17:40;;;;;;;;;;;19.80;99.90;;;;;;5125034;27;20361;-58
2022/09/05 08:20:26;;;;;;;;;;;19.90;99.90;;;;;;5084209;28;19913;-58
2022/09/05 08:23:08;;;;;;;;;;;20.10;99.90;;;;;;5125338;27;19912;-55
2022/09/05 08:25:53;;;;;;;;;;;20.20;99.90;;;;;;5084425;28;20274;-58
2022/09/05 08:28:39;;;;;;;;;;;20.30;99.90;;;;;;5129138;27;19912;-58
2022/09/05 08:31:21;;;;;;;;;;;20.40;99.90;;;;;;5121147;27;19916;-58
2022/09/05 08:34:01;;;;;;;;;;;20.60;99.90;;;;;;5125680;27;19912;-58
2022/09/05 08:36:45;;;;;;;;;;;20.60;99.90;;;;;;5125748;27;19912;-58
2022/09/05 08:39:28;;;;;;;;;;;20.70;99.90;;;;;;5124666;27;19915;-58
2022/09/05 08:42:15;;;;;;;;;;;20.80;99.90;;;;;;5113889;27;19916;-58
2022/09/05 08:45:07;;;;;;;;;;;20.80;99.90;;;;;;5125640;27;19912;-58
2022/09/05 08:47:53;;;;;;;;;;;20.90;99.90;;;;;;5104571;27;19920;-58
2022/09/05 08:50:44;;;;;;;;;;;21.10;99.90;;;;;;5125227;27;19926;-57
2022/09/05 08:53:28;;;;;;;;;;;21.10;99.90;;;;;;5104946;27;19926;-58
2022/09/05 08:56:13;;;;;;;;;;;21.30;99.90;;;;;;5125120;27;19912;-56
2022/09/05 08:58:57;;;;;;;;;;;21.40;99.90;;;;;;5124226;27;19915;-58
2022/09/05 09:01:45;;;;;;;;;;;21.50;99.90;;;;;;5118234;27;19917;-58
2022/09/05 09:04:34;;;;;;;;;;;21.50;99.90;;;;;;5125488;27;20364;-57
2022/09/05 09:07:20;;;;;;;;;;;21.60;99.90;;;;;;5104495;27;19916;-58
2022/09/05 09:10:04;;;;;;;;;;;21.80;99.90;;;;;;5104146;27;19912;-58
2022/09/05 09:12:57;;;;;;;;;;;22.00;99.90;;;;;;5088299;27;19927;-58
2022/09/05 09:15:39;;;;;;;;;;;22.00;99.90;;;;;;5124878;27;19912;-58
2022/09/05 09:18:20;;;;;;;;;;;22.10;99.90;;;;;;5104826;27;20328;-58
2022/09/05 09:21:12;;;;;;;;;;;22.20;99.90;;;;;;5124803;27;19916;-58
2022/09/05 09:23:56;;;;;;;;;;;22.40;99.90;;;;;;5125474;27;19915;-57
2022/09/05 09:26:41;;;;;;;;;;;22.50;99.90;;;;;;5084402;28;19912;-58
2022/09/05 09:29:23;;;;;;;;;;;22.60;99.90;;;;;;5124720;27;19912;-58
2022/09/05 09:32:05;;;;;;;;;;;22.70;99.90;;;;;;5114863;27;19912;-58
2022/09/05 09:34:51;;;;;;;;;;;22.70;99.90;;;;;;5125378;27;19923;-58
2022/09/05 09:37:40;;;;;;;;;;;22.80;99.90;;;;;;5104842;27;19926;-58
2022/09/05 09:40:29;;;;;;;;;;;22.80;99.90;;;;;;5125134;27;19919;-56
2022/09/05 09:43:16;;;;;;;;;;;22.80;99.90;;;;;;5125930;27;20649;-58
2022/09/05 09:46:01;;;;;;;;;;;23.00;99.90;;;;;;5104966;27;20225;-58
2022/09/05 09:48:58;;;;;;;;;;;23.30;99.90;;;;;;5104417;27;19926;-58
2022/09/05 09:51:45;;;;;;;;;;;23.40;99.90;;;;;;5098003;27;19926;-59
2022/09/05 09:54:39;;;;;;;;;;;23.50;99.90;;;;;;5104815;27;19926;-58
2022/09/05 09:57:32;;;;;;;;;;;23.60;99.90;;;;;;5083416;28;19913;-57
2022/09/05 10:00:14;;;;;;;;;;;23.60;99.90;;;;;;5103143;27;19912;-56
2022/09/05 10:03:19;;;;;;;;;;;23.80;99.90;;;;;;5125009;27;19911;-58
2022/09/05 10:06:06;;;;;;;;;;;24.00;99.90;;;;;;5104434;27;20362;-58
2022/09/05 10:08:56;;;;;;;;;;;24.00;99.90;;;;;;5124215;27;19915;-58
2022/09/05 10:11:51;;;;;;;;;;;24.00;99.90;;;;;;5098307;27;19926;-58
2022/09/05 10:14:59;;;;;;;;;;;24.10;99.90;;;;;;5125673;27;20380;-58
2022/09/05 10:17:46;;;;;;;;;;;24.00;99.90;;;;;;5104565;27;20254;-58
2022/09/05 10:20:36;;;;;;;;;;;24.00;99.90;;;;;;5104378;27;19920;-58
2022/09/05 10:23:33;;;;;;;;;;;23.80;99.90;;;;;;5125505;27;19912;-58
2022/09/05 10:26:29;;;;;;;;;;;24.00;99.90;;;;;;5104370;27;19953;-58
2022/09/05 10:29:10;;;;;;;;;;;24.10;99.90;;;;;;5125003;27;19916;-58
2022/09/05 10:31:55;;;;;;;;;;;24.10;99.90;;;;;;5116878;27;19920;-57
2022/09/05 10:34:47;;;;;;;;;;;24.10;99.90;;;;;;5125667;27;20582;-58
2022/09/05 10:37:34;;;;;;;;;;;24.20;99.90;;;;;;5084270;28;19917;-57
2022/09/05 10:40:18;;;;;;;;;;;24.30;99.90;;;;;;5125507;27;19911;-58
2022/09/05 10:43:01;;;;;;;;;;;24.40;99.90;;;;;;5125076;27;19912;-58
2022/09/05 10:45:45;;;;;;;;;;;24.60;99.90;;;;;;5125227;27;20365;-58
2022/09/05 10:48:28;;;;;;;;;;;24.70;99.90;;;;;;5084591;28;19913;-58
2022/09/05 10:51:15;;;;;;;;;;;24.80;99.90;;;;;;5122215;27;19912;-58
2022/09/05 10:54:01;;;;;;;;;;;24.90;99.90;;;;;;5125491;27;20392;-58
2022/09/05 10:56:43;;;;;;;;;;;24.70;99.90;;;;;;5083995;28;20271;-58
2022/09/05 10:59:27;;;;;;;;;;;24.50;99.90;;;;;;5124344;27;19916;-58
2022/09/05 11:02:12;;;;;;;;;;;24.50;99.90;;;;;;5094210;27;19954;-57
2022/09/05 11:04:57;;;;;;;;;;;24.70;99.90;;;;;;5105172;27;20362;-58
2022/09/05 11:07:39;;;;;;;;;;;24.80;99.90;;;;;;5125209;27;19911;-58
2022/09/05 11:10:21;;;;;;;;;;;24.70;99.90;;;;;;5104319;27;19916;-58
2022/09/05 11:13:07;;;;;;;;;;;24.80;99.90;;;;;;5105061;27;20311;-58
2022/09/05 11:15:54;;;;;;;;;;;24.80;99.90;;;;;;5125494;27;19912;-58
2022/09/05 11:18:43;;;;;;;;;;;24.80;99.90;;;;;;5145500;27;19911;-58
2022/09/05 11:21:25;;;;;;;;;;;24.80;99.90;;;;;;5120713;27;19920;-57
2022/09/05 11:24:14;;;;;;;;;;;25.00;99.90;;;;;;5105137;27;19950;-58
2022/09/05 11:26:59;;;;;;;;;;;25.10;99.90;;;;;;5028237;27;3322164;-58
2022/09/05 11:29:43;;;;;;;;;;;25.00;99.90;;;;;;5072762;27;1979646;-58
2022/09/05 11:32:38;;;;;;;;;;;24.90;99.90;;;;;;5071420;28;19913;-58
2022/09/05 11:35:20;;;;;;;;;;;25.00;99.90;;;;;;5125503;27;20105;-58
2022/09/05 11:38:23;;;;;;;;;;;25.10;99.90;;;;;;5084427;28;19921;-58
2022/09/05 11:41:27;;;;;;;;;;;25.00;99.90;;;;;;5082100;28;19913;-58
2022/09/05 11:44:33;;;;;;;;;;;25.10;99.90;;;;;;5124443;27;19912;-58
2022/09/05 11:47:30;;;;;;;;;;;25.20;99.90;;;;;;5122500;27;19923;-58
2022/09/05 11:50:28;;;;;;;;;;;25.10;99.90;;;;;;5122073;27;19916;-58
2022/09/05 11:53:37;;;;;;;;;;;24.90;99.90;;;;;;5106129;27;20366;-58
2022/09/05 11:56:24;;;;;;;;;;;24.70;99.90;;;;;;5103203;27;20315;-58
2022/09/05 11:59:18;;;;;;;;;;;24.60;99.90;;;;;;5124339;27;20380;-58
2022/09/05 12:02:06;;;;;;;;;;;24.40;99.90;;;;;;5115611;27;19916;-57
2022/09/05 12:04:49;;;;;;;;;;;24.50;99.90;;;;;;5125521;27;19915;-56
2022/09/05 12:07:50;;;;;;;;;;;24.80;99.90;;;;;;5084505;28;19913;-57
2022/09/05 12:10:35;;;;;;;;;;;25.00;99.90;;;;;;5103944;27;19912;-58
2022/09/05 12:13:34;;;;;;;;;;;25.10;99.90;;;;;;5098858;27;20339;-58
2022/09/05 12:16:40;;;;;;;;;;;25.10;99.90;;;;;;5101192;27;19919;-58
2022/09/05 12:19:26;;;;;;;;;;;25.20;99.90;;;;;;5099571;27;19930;-58
2022/09/05 12:22:24;;;;;;;;;;;25.20;99.90;;;;;;5123713;27;19912;-58
2022/09/05 12:25:11;;;;;;;;;;;25.30;99.90;;;;;;5121401;27;19915;-58
2022/09/05 12:27:53;;;;;;;;;;;25.40;99.90;;;;;;5129316;27;19957;-57
2022/09/05 12:30:36;;;;;;;;;;;25.20;99.90;;;;;;5084064;27;19916;-59
2022/09/05 12:33:24;;;;;;;;;;;24.90;99.90;;;;;;5125564;27;19919;-55
2022/09/05 12:36:08;;;;;;;;;;;24.70;99.90;;;;;;5125374;27;19911;-58
2022/09/05 12:38:50;;;;;;;;;;;24.80;99.90;;;;;;5125073;27;19915;-58
2022/09/05 12:41:39;;;;;;;;;;;25.10;99.90;;;;;;5101361;27;19962;-56
2022/09/05 12:44:25;;;;;;;;;;;25.40;99.90;;;;;;5098399;27;20779;-58
2022/09/05 12:47:09;;;;;;;;;;;25.70;99.90;;;;;;5123024;27;19920;-57
2022/09/05 12:49:56;;;;;;;;;;;25.90;96.00;;;;;;5100916;27;19920;-57
2022/09/05 12:52:41;;;;;;;;;;;25.90;92.60;;;;;;5088858;27;19927;-58
2022/09/05 12:55:25;;;;;;;;;;;25.80;90.20;;;;;;5099386;27;20560;-58
2022/09/05 12:58:11;;;;;;;;;;;25.90;85.00;;;;;;5096612;27;20131;-57
2022/09/05 13:00:53;;;;;;;;;;;26.10;83.20;;;;;;5123538;27;20197;-58
2022/09/05 13:03:36;;;;;;;;;;;26.20;84.00;;;;;;5121295;27;19915;-57
2022/09/05 13:06:22;;;;;;;;;;;26.30;86.00;;;;;;5088846;27;19954;-58
2022/09/05 13:09:05;;;;;;;;;;;26.50;81.60;;;;;;5124308;27;20646;-58
2022/09/05 13:12:02;;;;;;;;;;;26.50;78.10;;;;;;5125290;27;19915;-57
2022/09/05 13:14:57;;;;;;;;;;;26.50;79.70;;;;;;5104835;27;20351;-59
2022/09/05 13:17:39;;;;;;;;;;;26.40;77.90;;;;;;5125356;27;19919;-58
2022/09/05 13:20:21;;;;;;;;;;;26.30;77.80;;;;;;5125021;27;19912;-58
2022/09/05 13:23:05;;;;;;;;;;;26.40;77.10;;;;;;5124959;27;20355;-58
2022/09/05 13:25:56;;;;;;;;;;;26.60;76.20;;;;;;5122666;27;19924;-58
2022/09/05 13:28:41;;;;;;;;;;;26.80;76.10;;;;;;5119243;27;19916;-58
2022/09/05 13:31:35;;;;;;;;;;;26.90;74.00;;;;;;5113986;27;19916;-58
2022/09/05 13:34:18;;;;;;;;;;;26.90;77.70;;;;;;5084007;28;19912;-58
2022/09/05 13:37:02;;;;;;;;;;;26.90;75.30;;;;;;5124359;27;19911;-58
2022/09/05 13:39:54;;;;;;;;;;;26.70;76.10;;;;;;5118387;27;19916;-58
2022/09/05 13:42:37;;;;;;;;;;;26.50;75.40;;;;;;5097399;27;19934;-58
2022/09/05 13:45:18;;;;;;;;;;;26.50;74.50;;;;;;5100184;27;20327;-58
2022/09/05 13:48:14;;;;;;;;;;;26.40;76.10;;;;;;5124167;27;19912;-58
2022/09/05 13:50:58;;;;;;;;;;;26.10;78.50;;;;;;5092404;27;20238;-58
2022/09/05 13:53:50;;;;;;;;;;;26.00;74.00;;;;;;5121228;27;19924;-58
2022/09/05 13:56:32;;;;;;;;;;;26.30;75.20;;;;;;5124205;27;19911;-58
2022/09/05 13:59:14;;;;;;;;;;;26.70;76.40;;;;;;5123982;27;20369;-58
2022/09/05 14:02:01;;;;;;;;;;;27.00;71.40;;;;;;5145842;27;19925;-58
2022/09/05 14:04:51;;;;;;;;;;;26.90;68.90;;;;;;5105032;27;19916;-58
2022/09/05 14:07:49;;;;;;;;;;;26.80;70.90;;;;;;5104612;27;19926;-58
2022/09/05 14:10:46;;;;;;;;;;;26.70;71.60;;;;;;5124632;27;19938;-58
2022/09/05 14:13:30;;;;;;;;;;;26.50;70.10;;;;;;5128063;22;19942;-55
2022/09/05 14:16:13;;;;;;;;;;;26.20;70.60;;;;;;5084641;28;19913;-57
2022/09/05 14:21:52;;;;;;;;;;;26.10;71.80;;;;;;5101979;27;19970;-57
2022/09/05 14:24:33;;;;;;;;;;;26.10;72.20;;;;;;5121312;27;19920;-57
2022/09/05 14:27:15;;;;;;;;;;;26.10;72.00;;;;;;5123748;27;19915;-57
2022/09/05 14:29:56;;;;;;;;;;;26.10;73.00;;;;;;5121776;27;19922;-56
2022/09/05 14:32:51;;;;;;;;;;;26.10;74.40;;;;;;5103241;27;19953;-57
2022/09/05 14:35:34;;;;;;;;;;;26.10;74.60;;;;;;5097100;27;19917;-57
2022/09/05 14:38:21;;;;;;;;;;;26.30;74.10;;;;;;5077612;28;19917;-57
2022/09/05 14:41:18;;;;;;;;;;;26.40;73.90;;;;;;5089630;27;19931;-57
2022/09/05 14:44:11;;;;;;;;;;;26.60;73.30;;;;;;5119005;27;19919;-57
2022/09/05 14:46:59;;;;;;;;;;;27.00;72.50;;;;;;5083152;28;19912;-57
2022/09/05 14:49:55;;;;;;;;;;;27.20;71.50;;;;;;5107355;27;19920;-57
2022/09/05 14:52:35;;;;;;;;;;;27.20;70.70;;;;;;5115264;27;19920;-57
2022/09/05 14:55:19;;;;;;;;;;;27.10;71.20;;;;;;5124878;27;20226;-56
2022/09/05 14:57:59;;;;;;;;;;;27.00;71.00;;;;;;5158218;27;20562;-57
2022/09/05 15:00:55;;;;;;;;;;;26.90;71.80;;;;;;5070063;28;19920;-57
2022/09/05 15:03:37;;;;;;;;;;;26.80;70.70;;;;;;5098166;27;19957;-57
2022/09/05 15:06:20;;;;;;;;;;;26.60;72.20;;;;;;5095714;27;20380;-57
2022/09/05 15:09:01;;;;;;;;;;;26.40;72.30;;;;;;5098802;27;19920;-57
2022/09/05 15:11:42;;;;;;;;;;;26.30;72.30;;;;;;5141373;27;19916;-56
2022/09/05 15:14:26;;;;;;;;;;;26.20;72.40;;;;;;5077994;27;19950;-57
2022/09/05 15:17:07;;;;;;;;;;;26.10;69.70;;;;;;5115855;27;20327;-56
2022/09/05 15:19:48;;;;;;;;;;;26.00;72.80;;;;;;5101725;27;19926;-56
2022/09/05 15:22:29;;;;;;;;;;;25.90;72.30;;;;;;5090862;27;19993;-58
2022/09/05 15:25:15;;;;;;;;;;;25.70;73.80;;;;;;5121502;27;19930;-57
2022/09/05 15:27:56;;;;;;;;;;;25.40;74.40;;;;;;5119334;27;20328;-57
2022/09/05 15:30:35;;;;;;;;;;;25.00;74.80;;;;;;5120701;27;19916;-56
2022/09/05 15:33:16;;;;;;;;;;;25.00;75.10;;;;;;5094370;27;19919;-56
2022/09/05 15:35:57;;;;;;;;;;;25.20;76.90;;;;;;5104219;27;20294;-57
2022/09/05 15:38:39;;;;;;;;;;;25.30;75.80;;;;;;5076954;28;19917;-56
2022/09/05 15:41:21;;;;;;;;;;;25.20;76.00;;;;;;5103874;27;20415;-56
2022/09/05 15:44:03;;;;;;;;;;;25.00;78.20;;;;;;5124384;27;20389;-58
2022/09/05 15:46:46;;;;;;;;;;;24.80;79.70;;;;;;5098400;27;19916;-56
2022/09/05 15:49:31;;;;;;;;;;;24.70;81.00;;;;;;5108639;27;19926;-57
2022/09/05 15:52:27;;;;;;;;;;;24.60;81.40;;;;;;5104313;27;19924;-57
2022/09/05 15:55:14;;;;;;;;;;;24.60;80.90;;;;;;5119459;27;19922;-57
2022/09/05 15:57:59;;;;;;;;;;;24.50;80.90;;;;;;5110942;27;19933;-57
2022/09/05 16:00:41;;;;;;;;;;;24.50;80.60;;;;;;5121102;27;19918;-57
2022/09/05 16:03:24;;;;;;;;;;;24.50;81.50;;;;;;5106025;27;19920;-57
2022/09/05 16:06:06;;;;;;;;;;;24.60;80.60;;;;;;5119624;27;19920;-56
2022/09/05 16:08:49;;;;;;;;;;;24.50;82.40;;;;;;5118588;27;19923;-57
2022/09/05 16:11:31;;;;;;;;;;;24.40;83.90;;;;;;5098445;27;20423;-58
2022/09/05 16:14:16;;;;;;;;;;;24.30;85.80;;;;;;5101905;27;19931;-57
2022/09/05 16:16:58;;;;;;;;;;;24.20;88.00;;;;;;5111205;27;20381;-57
2022/09/05 16:19:42;;;;;;;;;;;24.10;88.00;;;;;;5111250;27;19933;-57